createdAt,value
2018-04-11T00:00:09.203Z,24.67
2018-04-11T00:02:37.831Z,28.30
2018-04-11T00:05:06.132Z,27.23
2018-04-11T00:07:34.256Z,26.60
2018-04-11T00:10:01.932Z,29.30
2018-04-11T00:12:29.468Z,24.70
2018-04-11T00:14:57.622Z,38.77
2018-04-11T00:17:26.814Z,20.37
2018-04-11T00:19:56.057Z,25.20
2018-04-11T00:22:23.605Z,40.10
2018-04-11T00:24:51.987Z,34.30
2018-04-11T00:27:19.771Z,21.50
2018-04-11T00:29:49.035Z,18.30
2018-04-11T00:32:20.463Z,17.27
2018-04-11T00:34:48.099Z,14.27
2018-04-11T00:37:15.639Z,11.37
2018-04-11T00:39:43.198Z,10.50
2018-04-11T00:42:10.716Z,9.53
2018-04-11T00:44:38.990Z,9.97
2018-04-11T00:47:06.511Z,11.23
2018-04-11T00:49:34.063Z,10.40
2018-04-11T00:52:01.591Z,9.67
2018-04-11T00:54:29.344Z,9.63
2018-04-11T00:56:56.846Z,9.48
2018-04-11T00:59:24.389Z,11.20
2018-04-11T01:01:51.902Z,10.53
2018-04-11T01:04:19.987Z,10.38
2018-04-11T01:06:47.540Z,10.50
2018-04-11T01:09:15.105Z,13.03
2018-04-11T01:11:42.636Z,13.73
2018-04-11T01:14:10.182Z,15.00
2018-04-11T01:16:37.698Z,13.40
2018-04-11T01:19:05.460Z,20.20
2018-04-11T01:21:33.095Z,25.27
2018-04-11T01:24:00.665Z,17.83
2018-04-11T01:26:28.220Z,13.23
2018-04-11T01:28:55.775Z,16.77
2018-04-11T01:31:23.334Z,23.20
2018-04-11T01:33:50.879Z,23.00
2018-04-11T01:36:18.765Z,32.07
2018-04-11T01:38:46.298Z,23.10
2018-04-11T01:41:13.860Z,26.85
2018-04-11T01:43:42.317Z,23.10
2018-04-11T01:46:09.866Z,39.23
2018-04-11T01:48:37.379Z,18.80
2018-04-11T01:51:04.947Z,20.07
2018-04-11T01:53:32.465Z,21.07
2018-04-11T01:56:00.036Z,21.97
2018-04-11T01:58:27.570Z,41.33
2018-04-11T02:00:55.175Z,19.80
2018-04-11T02:03:22.691Z,33.60
2018-04-11T02:05:50.238Z,22.60
2018-04-11T02:08:17.774Z,21.37
2018-04-11T02:10:45.349Z,18.83
2018-04-11T02:13:12.871Z,20.77
2018-04-11T02:15:40.422Z,17.95
2018-04-11T02:18:07.946Z,22.63
2018-04-11T02:20:35.526Z,23.60
2018-04-11T02:23:03.057Z,26.30
2018-04-11T02:25:30.605Z,21.83
2018-04-11T02:27:58.127Z,19.10
2018-04-11T02:30:25.679Z,21.97
2018-04-11T02:32:53.212Z,18.77
2018-04-11T02:35:20.765Z,21.55
2018-04-11T02:37:48.319Z,17.30
2018-04-11T02:40:15.875Z,13.80
2018-04-11T02:42:43.394Z,12.80
2018-04-11T02:45:10.954Z,12.97
2018-04-11T02:47:38.525Z,14.45
2018-04-11T02:50:06.109Z,13.30
2018-04-11T02:52:33.628Z,12.77
2018-04-11T02:55:01.182Z,11.63
2018-04-11T02:57:28.702Z,13.73
2018-04-11T02:59:56.234Z,14.17
2018-04-11T03:02:23.788Z,14.40
2018-04-11T03:04:51.315Z,15.18
2018-04-11T03:07:18.956Z,13.37
2018-04-11T03:09:46.482Z,15.83
2018-04-11T03:12:14.036Z,15.83
2018-04-11T03:14:41.554Z,42.10
2018-04-11T03:17:09.914Z,20.75
2018-04-11T03:19:37.440Z,17.43
2018-04-11T03:22:04.994Z,52.33
2018-04-11T03:24:32.596Z,93.80
2018-04-11T03:27:00.167Z,132.90
2018-04-11T03:29:27.691Z,354.55
2018-04-11T03:31:55.278Z,308.00
2018-04-11T03:34:22.809Z,141.67
2018-04-11T03:36:50.374Z,223.00
2018-04-11T03:39:17.899Z,474.00
2018-04-11T03:41:45.456Z,442.37
2018-04-11T03:44:12.980Z,190.80
2018-04-11T03:46:40.531Z,90.30
2018-04-11T03:49:08.065Z,63.33
2018-04-11T03:51:35.609Z,55.87
2018-04-11T03:54:03.133Z,136.67
2018-04-11T03:56:30.750Z,187.27
2018-04-11T03:58:58.309Z,150.87
2018-04-11T04:01:25.868Z,122.65
2018-04-11T04:03:53.386Z,117.10
2018-04-11T04:06:20.950Z,117.32
2018-04-11T04:08:48.478Z,199.40
2018-04-11T04:11:16.026Z,76.07
2018-04-11T04:13:55.299Z,65.87
2018-04-11T04:16:34.375Z,46.10
2018-04-11T04:19:13.671Z,101.73
2018-04-11T04:21:41.225Z,158.33
2018-04-11T04:24:08.770Z,182.60
2018-04-11T04:26:36.333Z,100.13
2018-04-11T04:29:03.875Z,85.53
2018-04-11T04:31:31.429Z,135.43
2018-04-11T04:33:58.950Z,65.97
2018-04-11T04:36:26.503Z,35.90
2018-04-11T04:38:54.051Z,28.97
2018-04-11T04:41:21.580Z,27.90
2018-04-11T04:43:49.188Z,30.50
2018-04-11T04:46:16.715Z,44.70
2018-04-11T04:48:44.290Z,40.17
2018-04-11T04:51:12.263Z,32.57
2018-04-11T04:53:39.821Z,26.10
2018-04-11T04:56:07.340Z,36.57
2018-04-11T04:58:34.897Z,32.60
2018-04-11T05:01:02.431Z,136.10
2018-04-11T05:03:29.994Z,58.13
2018-04-11T05:05:57.576Z,105.93
2018-04-11T05:08:27.541Z,90.53
2018-04-11T05:10:56.539Z,50.00
2018-04-11T05:13:27.789Z,86.73
2018-04-11T05:15:56.671Z,39.57
2018-04-11T05:18:27.391Z,54.60
2018-04-11T05:20:55.086Z,36.97
2018-04-11T05:23:23.255Z,22.52
2018-04-11T05:25:50.932Z,44.03
2018-04-11T05:28:21.805Z,55.93
2018-04-11T05:30:49.653Z,41.13
2018-04-11T05:33:17.482Z,69.97
2018-04-11T05:35:45.424Z,31.60
2018-04-11T05:38:14.028Z,38.83
2018-04-11T05:40:42.757Z,66.45
2018-04-11T05:43:10.540Z,76.83
2018-04-11T05:45:38.544Z,54.63
2018-04-11T05:48:06.156Z,56.47
2018-04-11T05:50:36.020Z,50.20
2018-04-11T05:53:07.505Z,34.53
2018-04-11T05:55:37.738Z,60.27
2018-04-11T05:58:05.467Z,54.97
2018-04-11T06:00:32.981Z,42.00
2018-04-11T06:03:00.835Z,57.07
2018-04-11T06:05:29.664Z,65.43
2018-04-11T06:07:57.250Z,89.63
2018-04-11T06:10:24.779Z,20.37
2018-04-11T06:12:52.331Z,58.53
2018-04-11T06:15:19.854Z,37.17
2018-04-11T06:17:51.972Z,104.43
2018-04-11T06:20:19.488Z,34.15
2018-04-11T06:22:47.052Z,36.27
2018-04-11T06:25:15.361Z,22.33
2018-04-11T06:27:42.994Z,18.13
2018-04-11T06:30:10.559Z,47.70
2018-04-11T06:32:38.078Z,44.40
2018-04-11T06:35:05.681Z,66.15
2018-04-11T06:37:33.186Z,18.17
2018-04-11T06:40:00.735Z,34.53
2018-04-11T06:42:28.286Z,39.60
2018-04-11T06:44:55.880Z,29.13
2018-04-11T06:47:23.457Z,44.67
2018-04-11T06:49:50.994Z,45.47
2018-04-11T06:52:18.515Z,69.63
2018-04-11T06:54:46.056Z,36.70
2018-04-11T06:57:13.603Z,19.97
2018-04-11T06:59:41.199Z,21.13
2018-04-11T07:02:08.730Z,28.77
2018-04-11T07:04:36.304Z,31.67
2018-04-11T07:07:03.839Z,31.53
2018-04-11T07:09:31.398Z,27.87
2018-04-11T07:14:32.625Z,25.77
2018-04-11T07:17:00.142Z,17.87
2018-04-11T07:19:27.704Z,25.73
2018-04-11T07:21:55.228Z,39.33
2018-04-11T07:24:22.804Z,71.77
2018-04-11T07:26:50.319Z,21.60
2018-04-11T07:29:17.912Z,23.00
2018-04-11T07:31:46.405Z,24.23
2018-04-11T07:34:13.962Z,32.53
2018-04-11T07:36:41.605Z,60.73
2018-04-11T07:39:09.158Z,50.27
2018-04-11T07:41:36.787Z,39.13
2018-04-11T07:44:04.422Z,41.80
2018-04-11T07:46:31.954Z,84.97
2018-04-11T07:48:59.525Z,53.93
2018-04-11T07:51:27.051Z,51.70
2018-04-11T07:53:54.619Z,45.17
2018-04-11T07:56:22.143Z,56.72
2018-04-11T07:58:50.426Z,69.47
2018-04-11T08:01:17.970Z,75.70
2018-04-11T08:03:46.224Z,88.43
2018-04-11T08:06:13.766Z,74.97
2018-04-11T08:08:41.310Z,63.90
2018-04-11T08:11:08.881Z,62.53
2018-04-11T08:13:36.441Z,49.87
2018-04-11T08:16:04.012Z,51.72
2018-04-11T08:18:31.550Z,64.07
2018-04-11T08:20:59.128Z,108.55
2018-04-11T08:23:30.368Z,88.10
2018-04-11T08:26:02.218Z,72.95
2018-04-11T08:28:31.773Z,104.33
2018-04-11T08:31:02.553Z,165.70
2018-04-11T08:33:33.726Z,181.73
2018-04-11T08:36:03.338Z,165.37
2018-04-11T08:38:34.073Z,112.93
2018-04-11T08:41:04.951Z,88.50
2018-04-11T08:43:32.664Z,162.33
2018-04-11T08:46:02.673Z,227.07
2018-04-11T08:48:31.413Z,274.00
2018-04-11T08:51:01.969Z,256.40
2018-04-11T08:53:32.646Z,337.93
2018-04-11T08:56:02.810Z,160.02
2018-04-11T08:58:31.051Z,143.83
2018-04-11T09:01:00.374Z,132.70
2018-04-11T09:03:28.616Z,85.12
2018-04-11T09:05:56.190Z,58.00
2018-04-11T09:08:23.816Z,38.22
2018-04-11T09:10:51.717Z,26.20
2018-04-11T09:13:19.625Z,23.85
2018-04-11T09:15:51.961Z,26.00
2018-04-11T09:18:22.445Z,24.20
2018-04-11T09:20:51.213Z,22.70
2018-04-11T09:23:18.848Z,23.13
2018-04-11T09:25:46.437Z,20.53
2018-04-11T09:28:16.666Z,23.30
2018-04-11T09:30:44.519Z,18.97
2018-04-11T09:33:14.846Z,22.92
2018-04-11T09:35:45.376Z,20.55
2018-04-11T09:38:14.747Z,15.40
2018-04-11T09:40:45.701Z,14.43
2018-04-11T09:43:15.927Z,13.27
2018-04-11T09:45:48.626Z,16.03
2018-04-11T09:48:16.358Z,21.10
2018-04-11T09:50:44.819Z,13.57
2018-04-11T09:53:13.837Z,11.63
2018-04-11T09:55:41.487Z,8.43
2018-04-11T09:58:11.752Z,9.07
2018-04-11T10:00:39.895Z,12.80
2018-04-11T10:03:08.800Z,21.13
2018-04-11T10:05:39.894Z,21.20
2018-04-11T10:08:07.874Z,22.70
2018-04-11T10:10:35.471Z,24.63
2018-04-11T10:13:03.692Z,22.23
2018-04-11T10:15:31.565Z,24.93
2018-04-11T10:17:59.339Z,25.67
2018-04-11T10:20:28.539Z,27.63
2018-04-11T10:22:57.779Z,24.30
2018-04-11T10:25:29.740Z,22.63
2018-04-11T10:27:58.247Z,22.43
2018-04-11T10:30:26.554Z,20.90
2018-04-11T10:32:54.203Z,27.33
2018-04-11T10:35:21.759Z,26.02
2018-04-11T10:37:52.005Z,14.38
2018-04-11T10:40:20.369Z,14.70
2018-04-11T10:42:47.971Z,6.28
2018-04-11T10:45:15.805Z,15.07
2018-04-11T10:47:43.903Z,9.90
2018-04-11T10:50:14.216Z,11.03
2018-04-11T10:52:41.918Z,8.83
2018-04-11T10:55:12.223Z,5.13
2018-04-11T10:57:40.044Z,6.47
2018-04-11T11:00:12.820Z,6.90
2018-04-11T11:02:40.602Z,6.30
2018-04-11T11:05:08.149Z,3.23
2018-04-11T11:07:35.690Z,9.83
2018-04-11T11:10:03.204Z,4.83
2018-04-11T11:12:30.770Z,7.95
2018-04-11T11:14:58.286Z,6.47
2018-04-11T11:17:25.841Z,9.50
2018-04-11T11:20:08.950Z,5.63
2018-04-11T11:22:36.502Z,9.50
2018-04-11T11:25:04.041Z,8.57
2018-04-11T11:27:31.697Z,9.33
2018-04-11T11:29:59.231Z,6.80
2018-04-11T11:32:26.793Z,3.50
2018-04-11T11:34:54.326Z,3.87
2018-04-11T11:37:21.888Z,4.23
2018-04-11T11:39:49.411Z,4.20
2018-04-11T11:42:16.978Z,3.08
2018-04-11T11:44:44.513Z,2.77
2018-04-11T11:47:12.093Z,5.18
2018-04-11T11:49:39.616Z,3.07
2018-04-11T11:52:07.485Z,3.83
2018-04-11T11:54:35.257Z,2.50
2018-04-11T11:57:02.823Z,2.70
2018-04-11T11:59:30.456Z,3.35
2018-04-11T12:01:58.006Z,3.58
2018-04-11T12:04:25.551Z,4.20
2018-04-11T12:06:53.182Z,3.78
2018-04-11T12:09:20.711Z,4.27
2018-04-11T12:11:48.292Z,3.10
2018-04-11T12:14:15.866Z,3.77
2018-04-11T12:16:44.374Z,3.17
2018-04-11T12:19:11.899Z,7.37
2018-04-11T12:21:39.497Z,3.07
2018-04-11T12:24:07.057Z,2.57
2018-04-11T12:26:34.781Z,3.27
2018-04-11T12:29:02.304Z,3.77
2018-04-11T12:31:30.005Z,3.80
2018-04-11T13:37:08.942Z,3.05
2018-04-11T13:39:36.534Z,2.33
2018-04-11T13:42:04.090Z,3.92
2018-04-11T13:44:31.632Z,2.07
2018-04-11T13:46:59.228Z,2.63
2018-04-11T13:49:26.890Z,1.50
2018-04-11T13:51:54.507Z,1.73
2018-04-11T13:54:22.061Z,3.03
2018-04-11T13:56:49.661Z,2.03
2018-04-11T13:59:17.764Z,3.67
2018-04-11T14:01:45.402Z,3.37
2018-04-11T14:04:12.993Z,2.08
2018-04-11T14:06:40.496Z,2.70
2018-04-11T14:09:08.291Z,2.42
2018-04-11T14:11:36.385Z,4.40
2018-04-11T14:14:04.053Z,2.30
2018-04-11T14:16:31.820Z,2.20
2018-04-11T14:18:59.383Z,1.53
2018-04-11T14:21:27.411Z,2.53
2018-04-11T14:23:55.212Z,2.33
2018-04-11T14:26:22.814Z,3.23
2018-04-11T14:28:50.500Z,3.20
2018-04-11T14:31:18.018Z,2.60
2018-04-11T14:33:45.570Z,1.67
2018-04-11T14:36:13.903Z,2.97
2018-04-11T14:38:41.923Z,1.65
2018-04-11T14:41:09.527Z,4.20
2018-04-11T14:43:37.199Z,3.23
2018-04-11T14:46:04.730Z,1.67
2018-04-11T14:48:32.289Z,1.07
2018-04-11T14:50:59.955Z,1.80
2018-04-11T14:53:27.836Z,1.50
2018-04-11T14:55:55.910Z,1.43
2018-04-11T14:58:23.493Z,1.60
2018-04-11T15:00:51.023Z,7.00
2018-04-11T15:03:18.572Z,8.83
2018-04-11T15:05:46.093Z,2.83
2018-04-11T15:08:14.101Z,4.60
2018-04-11T15:10:41.661Z,1.33
2018-04-11T15:13:09.231Z,1.73
2018-04-11T15:15:36.781Z,2.45
2018-04-11T15:18:04.322Z,1.40
2018-04-11T15:20:34.188Z,1.57
2018-04-11T15:23:01.890Z,1.30
2018-04-11T15:25:29.420Z,1.93
2018-04-11T15:27:56.994Z,1.23
2018-04-11T15:30:24.506Z,1.23
2018-04-11T15:32:52.023Z,1.27
2018-04-11T15:35:19.578Z,1.17
2018-04-11T15:37:47.127Z,1.48
2018-04-11T15:40:14.707Z,2.03
2018-04-11T15:42:42.216Z,1.53
2018-04-11T15:45:09.758Z,1.50
2018-04-11T15:47:37.287Z,2.67
2018-04-11T15:50:04.841Z,0.97
2018-04-11T15:52:32.365Z,2.03
2018-04-11T15:54:59.921Z,1.30
2018-04-11T15:57:27.443Z,0.97
2018-04-11T15:59:56.698Z,3.97
2018-04-11T16:02:25.274Z,2.57
2018-04-11T16:04:53.746Z,3.70
2018-04-11T16:07:21.301Z,2.80
2018-04-11T16:09:48.858Z,4.17
2018-04-11T16:12:16.383Z,2.90
2018-04-11T16:14:43.938Z,1.50
2018-04-11T16:17:12.135Z,2.03
2018-04-11T16:19:39.787Z,2.23
2018-04-11T16:22:07.338Z,1.43
2018-04-11T16:24:34.916Z,1.00
2018-04-11T16:27:02.449Z,1.10
2018-04-11T16:29:30.003Z,2.00
2018-04-11T16:31:57.687Z,1.20
2018-04-11T16:34:25.353Z,4.83
2018-04-11T16:36:52.881Z,1.27
2018-04-11T16:39:20.484Z,1.37
2018-04-11T16:41:48.009Z,2.80
2018-04-11T16:44:15.565Z,1.33
2018-04-11T16:46:43.118Z,2.00
2018-04-11T16:49:10.694Z,1.35
2018-04-11T16:51:42.609Z,2.53
2018-04-11T16:54:10.948Z,4.67
2018-04-11T16:56:45.299Z,2.03
2018-04-11T16:59:17.903Z,1.40
2018-04-11T17:01:52.775Z,2.83
2018-04-11T17:04:24.306Z,0.90
2018-04-11T17:06:59.320Z,1.03
2018-04-11T17:09:33.523Z,2.17
2018-04-11T17:12:04.875Z,2.23
2018-04-11T17:14:41.028Z,1.63
2018-04-11T17:17:17.344Z,1.40
2018-04-11T17:19:52.226Z,1.30
2018-04-11T17:25:20.697Z,1.50
2018-04-11T17:33:45.958Z,2.93
2018-04-11T17:36:15.931Z,1.60
2018-04-11T17:38:45.538Z,2.37
2018-04-11T17:41:14.038Z,1.47
2018-04-11T17:43:49.393Z,2.35
2018-04-11T17:46:20.093Z,1.50
2018-04-11T17:48:48.644Z,1.43
2018-04-11T17:51:16.227Z,1.60
2018-04-11T17:53:45.781Z,1.60
2018-04-11T17:56:16.346Z,1.73
2018-04-11T17:58:45.106Z,1.93
2018-04-11T18:01:14.359Z,1.30
2018-04-11T18:03:43.069Z,1.70
2018-04-11T18:06:10.745Z,1.50
2018-04-11T18:08:38.253Z,1.77
2018-04-11T18:11:05.817Z,2.10
2018-04-11T18:13:33.371Z,2.03
2018-04-11T18:16:00.989Z,2.50
2018-04-11T18:18:28.502Z,2.10
2018-04-11T18:20:56.045Z,4.17
2018-04-11T18:23:23.545Z,7.13
2018-04-11T18:25:51.110Z,6.37
2018-04-11T18:28:18.634Z,8.57
2018-04-11T18:30:46.236Z,6.80
2018-04-11T18:33:13.766Z,3.63
2018-04-11T18:35:41.315Z,2.43
2018-04-11T18:38:08.865Z,3.03
2018-04-11T18:40:36.418Z,2.60
2018-04-11T18:43:03.948Z,1.53
2018-04-11T18:45:31.465Z,1.40
2018-04-11T18:47:59.025Z,1.80
2018-04-11T18:50:26.554Z,1.30
2018-04-11T18:52:54.107Z,1.37
2018-04-11T18:55:21.687Z,1.20
2018-04-11T18:57:49.225Z,3.17
2018-04-11T19:00:16.759Z,2.00
2018-04-11T19:02:44.316Z,1.77
2018-04-11T19:05:11.848Z,1.17
2018-04-11T19:07:39.395Z,3.07
2018-04-11T19:10:06.905Z,5.90
2018-04-11T19:12:34.475Z,1.77
2018-04-11T19:15:02.078Z,2.20
2018-04-11T19:17:29.629Z,2.08
2018-04-11T19:19:57.152Z,1.93
2018-04-11T19:22:24.701Z,1.87
2018-04-11T19:24:52.865Z,1.93
2018-04-11T19:27:22.304Z,2.20
2018-04-11T19:29:49.892Z,2.20
2018-04-11T19:32:17.443Z,2.33
2018-04-11T19:34:45.005Z,3.37
2018-04-11T19:37:12.668Z,1.85
2018-04-11T19:39:40.209Z,2.77
2018-04-11T19:42:08.102Z,1.90
2018-04-11T19:44:35.909Z,3.92
2018-04-11T19:47:04.960Z,1.53
2018-04-11T19:49:33.123Z,2.17
2018-04-11T19:52:00.792Z,2.20
2018-04-11T19:54:28.612Z,2.30
2018-04-11T19:56:56.168Z,2.47
2018-04-11T19:59:24.243Z,3.13
2018-04-11T20:01:51.958Z,2.93
2018-04-11T20:04:19.471Z,2.87
2018-04-11T20:06:47.027Z,4.60
2018-04-11T20:09:14.547Z,2.00
2018-04-11T20:11:42.101Z,2.80
2018-04-11T20:14:17.965Z,2.13
2018-04-11T20:16:45.599Z,1.90
2018-04-11T20:19:13.158Z,2.23
2018-04-11T20:21:40.690Z,2.30
2018-04-11T20:24:08.290Z,2.40
2018-04-11T20:26:36.344Z,4.10
2018-04-11T20:29:05.046Z,2.73
2018-04-11T20:31:32.597Z,4.80
2018-04-11T20:34:00.152Z,5.00
2018-04-11T20:36:27.713Z,3.27
2018-04-11T20:38:55.271Z,5.07
2018-04-11T20:41:22.807Z,2.87
2018-04-11T20:43:50.390Z,3.53
2018-04-11T20:46:17.962Z,2.80
2018-04-11T20:48:45.614Z,3.47
2018-04-11T20:51:13.172Z,3.30
2018-04-11T20:53:40.719Z,3.13
2018-04-11T20:56:10.300Z,2.97
2018-04-11T20:58:38.070Z,3.50
2018-04-11T21:01:06.525Z,3.80
2018-04-11T21:03:34.208Z,3.80
2018-04-11T21:06:01.858Z,3.57
2018-04-11T21:08:30.684Z,3.43
2018-04-11T21:10:58.255Z,4.33
2018-04-11T21:13:25.837Z,4.33
2018-04-11T21:15:53.368Z,4.17
2018-04-11T21:18:22.100Z,4.57
2018-04-11T21:20:49.722Z,4.87
2018-04-11T21:23:17.273Z,4.10
2018-04-11T21:25:45.547Z,5.90
2018-04-11T21:28:13.202Z,8.13
2018-04-11T21:30:40.731Z,8.67
2018-04-11T21:33:08.305Z,9.07
2018-04-11T21:35:35.834Z,10.13
2018-04-11T21:38:03.462Z,9.30
2018-04-11T21:40:31.021Z,11.67
2018-04-11T21:42:58.678Z,9.03
2018-04-11T21:45:26.218Z,9.67
2018-04-11T21:47:53.770Z,9.20
2018-04-11T21:50:21.295Z,6.37
2018-04-11T21:52:48.876Z,7.22
2018-04-11T21:55:16.398Z,5.97
2018-04-11T21:57:44.954Z,7.40
2018-04-11T22:00:16.175Z,6.20
2018-04-11T22:02:47.681Z,5.13
2018-04-11T22:05:15.530Z,5.53
2018-04-11T22:07:43.056Z,4.63
2018-04-11T22:10:11.544Z,4.50
2018-04-11T22:12:39.223Z,6.63
2018-04-11T22:15:07.843Z,4.93
2018-04-11T22:17:35.569Z,4.73
2018-04-11T22:20:03.243Z,4.17
2018-04-11T22:22:30.948Z,4.37
2018-04-11T22:24:58.662Z,4.60
2018-04-11T22:27:26.727Z,4.40
2018-04-11T22:29:55.442Z,3.95
2018-04-11T22:32:23.154Z,4.40
2018-04-11T22:34:51.741Z,4.68
2018-04-11T22:37:19.320Z,4.87
2018-04-11T22:39:46.983Z,5.30
2018-04-11T22:42:14.586Z,5.25
2018-04-11T22:44:42.213Z,6.07
2018-04-11T22:47:09.773Z,5.43
2018-04-11T22:49:37.689Z,5.35
2018-04-11T22:52:05.301Z,5.30
2018-04-11T22:54:32.955Z,5.70
2018-04-11T22:57:00.853Z,5.73
2018-04-11T22:59:29.579Z,5.70
2018-04-11T23:01:57.186Z,5.47
2018-04-11T23:04:26.637Z,5.53
2018-04-11T23:06:54.344Z,5.33
2018-04-11T23:09:22.741Z,5.07
2018-04-11T23:11:50.276Z,5.40
2018-04-11T23:14:20.272Z,5.63
2018-04-11T23:16:48.278Z,5.20
2018-04-11T23:19:15.924Z,5.30
2018-04-11T23:21:44.814Z,5.27
2018-04-11T23:24:12.477Z,5.90
2018-04-11T23:26:40.253Z,5.13
2018-04-11T23:29:07.911Z,5.10
2018-04-11T23:31:35.475Z,5.30
2018-04-11T23:34:03.081Z,7.20
2018-04-11T23:36:30.682Z,6.07
2018-04-11T23:38:58.241Z,5.57
2018-04-11T23:41:25.801Z,5.22
2018-04-11T23:43:53.480Z,5.53
2018-04-11T23:46:21.026Z,5.97
2018-04-11T23:48:48.553Z,7.27
2018-04-11T23:51:16.143Z,4.97
2018-04-11T23:53:43.702Z,5.43
2018-04-11T23:56:11.283Z,5.27
2018-04-11T23:58:38.893Z,6.00
